sensor_id;sensor_type;location;lat;lon;timestamp;temperature;humidity
32322;DHT22;61553;48.994;8.940;2023-09-19T00:00:38;15.20;99.90
32322;DHT22;61553;48.994;8.940;2023-09-19T00:03:06;15.20;99.90
32322;DHT22;61553;48.994;8.940;2023-09-19T00:05:34;15.20;99.90
32322;DHT22;61553;48.994;8.940;2023-09-19T00:08:00;15.20;99.90
32322;DHT22;61553;48.994;8.940;2023-09-19T00:10:27;15.10;99.90
32322;DHT22;61553;48.994;8.940;2023-09-19T00:12:57;15.00;99.90
32322;DHT22;61553;48.994;8.940;2023-09-19T00:15:25;14.90;99.90
32322;DHT22;61553;48.994;8.940;2023-09-19T00:17:55;14.90;99.90
32322;DHT22;61553;48.994;8.940;2023-09-19T00:20:21;14.80;99.90
32322;DHT22;61553;48.994;8.940;2023-09-19T00:22:49;14.70;99.90
32322;DHT22;61553;48.994;8.940;2023-09-19T00:25:17;14.70;99.90
32322;DHT22;61553;48.994;8.940;2023-09-19T00:27:43;14.70;99.90
32322;DHT22;61553;48.994;8.940;2023-09-19T00:30:11;14.70;99.90
32322;DHT22;61553;48.994;8.940;2023-09-19T00:32:50;14.70;99.90
32322;DHT22;61553;48.994;8.940;2023-09-19T00:35:18;14.80;99.90
32322;DHT22;61553;48.994;8.940;2023-09-19T00:37:49;14.90;99.90
32322;DHT22;61553;48.994;8.940;2023-09-19T00:40:14;15.00;99.90
32322;DHT22;61553;48.994;8.940;2023-09-19T00:42:47;15.10;99.90
32322;DHT22;61553;48.994;8.940;2023-09-19T00:45:15;15.20;99.90
32322;DHT22;61553;48.994;8.940;2023-09-19T00:47:44;15.20;99.90
32322;DHT22;61553;48.994;8.940;2023-09-19T00:50:12;15.20;99.90
32322;DHT22;61553;48.994;8.940;2023-09-19T00:52:40;15.20;99.90
32322;DHT22;61553;48.994;8.940;2023-09-19T00:55:11;15.20;99.90
32322;DHT22;61553;48.994;8.940;2023-09-19T00:57:39;15.30;99.90
32322;DHT22;61553;48.994;8.940;2023-09-19T01:00:06;15.20;99.90
32322;DHT22;61553;48.994;8.940;2023-09-19T01:02:36;15.10;99.90
32322;DHT22;61553;48.994;8.940;2023-09-19T01:05:02;15.10;99.90
32322;DHT22;61553;48.994;8.940;2023-09-19T01:07:32;15.10;99.90
32322;DHT22;61553;48.994;8.940;2023-09-19T01:09:59;15.10;99.90
32322;DHT22;61553;48.994;8.940;2023-09-19T01:18:28;15.00;99.90
32322;DHT22;61553;48.994;8.940;2023-09-19T01:26:18;14.80;99.90
32322;DHT22;61553;48.994;8.940;2023-09-19T01:31:49;15.10;99.90
32322;DHT22;61553;48.994;8.940;2023-09-19T01:34:16;15.00;99.90
32322;DHT22;61553;48.994;8.940;2023-09-19T01:36:43;15.00;99.90
32322;DHT22;61553;48.994;8.940;2023-09-19T01:39:12;14.90;99.90
32322;DHT22;61553;48.994;8.940;2023-09-19T01:44:14;14.80;99.90
32322;DHT22;61553;48.994;8.940;2023-09-19T01:46:44;14.80;99.90
32322;DHT22;61553;48.994;8.940;2023-09-19T01:49:31;14.80;99.90
32322;DHT22;61553;48.994;8.940;2023-09-19T01:52:15;14.90;99.90
32322;DHT22;61553;48.994;8.940;2023-09-19T01:54:48;14.90;99.90
32322;DHT22;61553;48.994;8.940;2023-09-19T01:57:30;14.90;99.90
32322;DHT22;61553;48.994;8.940;2023-09-19T02:00:03;14.90;99.90
32322;DHT22;61553;48.994;8.940;2023-09-19T02:02:38;14.90;99.90
32322;DHT22;61553;48.994;8.940;2023-09-19T02:05:04;14.90;99.90
32322;DHT22;61553;48.994;8.940;2023-09-19T02:07:31;14.90;99.90
32322;DHT22;61553;48.994;8.940;2023-09-19T02:09:58;14.90;99.90
32322;DHT22;61553;48.994;8.940;2023-09-19T02:12:26;14.90;99.90
32322;DHT22;61553;48.994;8.940;2023-09-19T02:14:51;14.90;99.90
32322;DHT22;61553;48.994;8.940;2023-09-19T02:17:17;14.80;99.90
32322;DHT22;61553;48.994;8.940;2023-09-19T02:19:43;14.80;99.90
32322;DHT22;61553;48.994;8.940;2023-09-19T02:22:09;14.80;99.90
32322;DHT22;61553;48.994;8.940;2023-09-19T02:24:38;14.80;99.90
32322;DHT22;61553;48.994;8.940;2023-09-19T02:27:04;14.80;99.90
32322;DHT22;61553;48.994;8.940;2023-09-19T02:29:30;14.80;99.90
32322;DHT22;61553;48.994;8.940;2023-09-19T02:31:56;14.80;99.90
32322;DHT22;61553;48.994;8.940;2023-09-19T02:34:22;14.90;99.90
32322;DHT22;61553;48.994;8.940;2023-09-19T02:36:48;15.00;99.90
32322;DHT22;61553;48.994;8.940;2023-09-19T02:39:14;15.10;99.90
32322;DHT22;61553;48.994;8.940;2023-09-19T02:41:39;15.10;99.90
32322;DHT22;61553;48.994;8.940;2023-09-19T02:44:07;15.30;99.90
32322;DHT22;61553;48.994;8.940;2023-09-19T02:46:33;15.40;99.90
32322;DHT22;61553;48.994;8.940;2023-09-19T02:49:01;15.50;99.90
32322;DHT22;61553;48.994;8.940;2023-09-19T02:51:28;15.50;99.90
32322;DHT22;61553;48.994;8.940;2023-09-19T02:53:54;15.60;99.90
32322;DHT22;61553;48.994;8.940;2023-09-19T02:56:20;15.70;99.90
32322;DHT22;61553;48.994;8.940;2023-09-19T02:58:45;15.70;99.90
32322;DHT22;61553;48.994;8.940;2023-09-19T03:01:11;15.70;99.90
32322;DHT22;61553;48.994;8.940;2023-09-19T03:03:37;15.80;99.90
32322;DHT22;61553;48.994;8.940;2023-09-19T03:06:05;15.80;99.90
32322;DHT22;61553;48.994;8.940;2023-09-19T03:08:31;15.80;99.90
32322;DHT22;61553;48.994;8.940;2023-09-19T03:11:03;15.80;99.90
32322;DHT22;61553;48.994;8.940;2023-09-19T03:13:31;15.90;99.90
32322;DHT22;61553;48.994;8.940;2023-09-19T03:15:57;16.00;99.90
32322;DHT22;61553;48.994;8.940;2023-09-19T03:18:26;16.00;99.90
32322;DHT22;61553;48.994;8.940;2023-09-19T03:20:58;16.00;99.90
32322;DHT22;61553;48.994;8.940;2023-09-19T03:23:27;16.00;99.90
32322;DHT22;61553;48.994;8.940;2023-09-19T03:25:54;16.10;99.90
32322;DHT22;61553;48.994;8.940;2023-09-19T03:28:20;16.10;99.90
32322;DHT22;61553;48.994;8.940;2023-09-19T03:30:58;16.20;99.90
32322;DHT22;61553;48.994;8.940;2023-09-19T03:33:23;16.20;99.90
32322;DHT22;61553;48.994;8.940;2023-09-19T03:35:55;16.30;99.90
32322;DHT22;61553;48.994;8.940;2023-09-19T03:38:23;16.30;99.90
32322;DHT22;61553;48.994;8.940;2023-09-19T03:40:49;16.40;99.90
32322;DHT22;61553;48.994;8.940;2023-09-19T03:43:15;16.50;99.90
32322;DHT22;61553;48.994;8.940;2023-09-19T03:45:40;16.50;99.90
32322;DHT22;61553;48.994;8.940;2023-09-19T03:48:09;16.50;99.90
32322;DHT22;61553;48.994;8.940;2023-09-19T03:50:35;16.60;99.90
32322;DHT22;61553;48.994;8.940;2023-09-19T03:53:01;16.60;99.90
32322;DHT22;61553;48.994;8.940;2023-09-19T03:55:27;16.60;99.90
32322;DHT22;61553;48.994;8.940;2023-09-19T03:57:53;16.60;99.90
32322;DHT22;61553;48.994;8.940;2023-09-19T04:00:19;16.50;99.90
32322;DHT22;61553;48.994;8.940;2023-09-19T04:02:48;16.40;99.90
32322;DHT22;61553;48.994;8.940;2023-09-19T04:05:14;16.30;99.90
32322;DHT22;61553;48.994;8.940;2023-09-19T04:07:39;16.30;99.90
32322;DHT22;61553;48.994;8.940;2023-09-19T04:10:05;16.20;99.90
32322;DHT22;61553;48.994;8.940;2023-09-19T04:12:34;16.10;99.90
32322;DHT22;61553;48.994;8.940;2023-09-19T04:14:59;16.10;99.90
32322;DHT22;61553;48.994;8.940;2023-09-19T04:17:25;16.10;99.90
32322;DHT22;61553;48.994;8.940;2023-09-19T04:19:51;16.10;99.90
32322;DHT22;61553;48.994;8.940;2023-09-19T04:22:17;16.10;99.90
32322;DHT22;61553;48.994;8.940;2023-09-19T04:24:42;16.10;99.90
32322;DHT22;61553;48.994;8.940;2023-09-19T04:27:08;16.10;99.90
32322;DHT22;61553;48.994;8.940;2023-09-19T04:29:35;16.00;99.90
32322;DHT22;61553;48.994;8.940;2023-09-19T04:32:01;16.10;99.90
32322;DHT22;61553;48.994;8.940;2023-09-19T04:34:29;16.00;99.90
32322;DHT22;61553;48.994;8.940;2023-09-19T04:36:56;16.10;99.90
32322;DHT22;61553;48.994;8.940;2023-09-19T04:39:23;16.00;99.90
32322;DHT22;61553;48.994;8.940;2023-09-19T04:41:51;16.00;99.90
32322;DHT22;61553;48.994;8.940;2023-09-19T04:44:17;16.00;99.90
32322;DHT22;61553;48.994;8.940;2023-09-19T04:46:44;16.10;99.90
32322;DHT22;61553;48.994;8.940;2023-09-19T04:49:09;16.10;99.90
32322;DHT22;61553;48.994;8.940;2023-09-19T04:51:35;16.10;99.90
32322;DHT22;61553;48.994;8.940;2023-09-19T04:54:01;16.00;99.90
32322;DHT22;61553;48.994;8.940;2023-09-19T04:56:28;16.00;99.90
32322;DHT22;61553;48.994;8.940;2023-09-19T04:58:54;16.00;99.90
32322;DHT22;61553;48.994;8.940;2023-09-19T05:01:19;16.00;99.90
32322;DHT22;61553;48.994;8.940;2023-09-19T05:03:48;16.00;99.90
32322;DHT22;61553;48.994;8.940;2023-09-19T05:06:20;16.00;99.90
32322;DHT22;61553;48.994;8.940;2023-09-19T05:08:47;16.00;99.90
32322;DHT22;61553;48.994;8.940;2023-09-19T05:11:20;16.10;99.90
32322;DHT22;61553;48.994;8.940;2023-09-19T05:13:47;16.10;99.90
32322;DHT22;61553;48.994;8.940;2023-09-19T05:16:13;16.10;99.90
32322;DHT22;61553;48.994;8.940;2023-09-19T05:18:39;16.10;99.90
32322;DHT22;61553;48.994;8.940;2023-09-19T05:21:05;16.20;99.90
32322;DHT22;61553;48.994;8.940;2023-09-19T05:23:31;16.20;99.90
32322;DHT22;61553;48.994;8.940;2023-09-19T05:25:57;16.20;99.90
32322;DHT22;61553;48.994;8.940;2023-09-19T05:28:25;16.30;99.90
32322;DHT22;61553;48.994;8.940;2023-09-19T05:30:52;16.30;99.90
32322;DHT22;61553;48.994;8.940;2023-09-19T05:33:18;16.40;99.90
32322;DHT22;61553;48.994;8.940;2023-09-19T05:35:45;16.40;99.90
32322;DHT22;61553;48.994;8.940;2023-09-19T05:38:12;16.40;99.90
32322;DHT22;61553;48.994;8.940;2023-09-19T05:40:39;16.30;99.90
32322;DHT22;61553;48.994;8.940;2023-09-19T05:43:08;16.30;99.90
32322;DHT22;61553;48.994;8.940;2023-09-19T05:45:34;16.50;99.90
32322;DHT22;61553;48.994;8.940;2023-09-19T05:48:12;16.50;99.90
32322;DHT22;61553;48.994;8.940;2023-09-19T05:50:38;16.40;99.90
32322;DHT22;61553;48.994;8.940;2023-09-19T05:53:05;16.40;99.90
32322;DHT22;61553;48.994;8.940;2023-09-19T05:55:31;16.40;99.90
32322;DHT22;61553;48.994;8.940;2023-09-19T05:57:57;16.40;99.90
32322;DHT22;61553;48.994;8.940;2023-09-19T06:00:24;16.30;99.90
32322;DHT22;61553;48.994;8.940;2023-09-19T06:02:53;16.40;99.90
32322;DHT22;61553;48.994;8.940;2023-09-19T06:05:19;16.40;99.90
32322;DHT22;61553;48.994;8.940;2023-09-19T06:07:45;16.40;99.90
32322;DHT22;61553;48.994;8.940;2023-09-19T06:10:12;16.40;99.90
32322;DHT22;61553;48.994;8.940;2023-09-19T06:12:38;16.50;99.90
32322;DHT22;61553;48.994;8.940;2023-09-19T06:15:05;16.60;99.90
32322;DHT22;61553;48.994;8.940;2023-09-19T06:17:31;16.70;99.90
32322;DHT22;61553;48.994;8.940;2023-09-19T06:19:57;16.80;99.90
32322;DHT22;61553;48.994;8.940;2023-09-19T06:22:22;16.90;99.90
32322;DHT22;61553;48.994;8.940;2023-09-19T06:24:49;17.10;99.90
32322;DHT22;61553;48.994;8.940;2023-09-19T06:27:15;17.30;99.90
32322;DHT22;61553;48.994;8.940;2023-09-19T06:29:41;17.40;99.90
32322;DHT22;61553;48.994;8.940;2023-09-19T06:32:08;17.60;99.90
32322;DHT22;61553;48.994;8.940;2023-09-19T06:34:34;17.80;99.90
32322;DHT22;61553;48.994;8.940;2023-09-19T06:37:00;18.00;99.90
32322;DHT22;61553;48.994;8.940;2023-09-19T06:39:25;18.00;99.90
32322;DHT22;61553;48.994;8.940;2023-09-19T06:41:52;17.90;99.90
32322;DHT22;61553;48.994;8.940;2023-09-19T06:44:19;17.90;99.90
32322;DHT22;61553;48.994;8.940;2023-09-19T06:46:47;18.00;99.90
32322;DHT22;61553;48.994;8.940;2023-09-19T06:49:15;18.10;99.90
32322;DHT22;61553;48.994;8.940;2023-09-19T06:51:41;18.20;99.90
32322;DHT22;61553;48.994;8.940;2023-09-19T06:54:07;18.20;99.90
32322;DHT22;61553;48.994;8.940;2023-09-19T06:56:33;18.30;99.90
32322;DHT22;61553;48.994;8.940;2023-09-19T06:58:58;18.20;99.90
32322;DHT22;61553;48.994;8.940;2023-09-19T07:01:24;18.20;99.90
32322;DHT22;61553;48.994;8.940;2023-09-19T07:03:50;18.20;99.90
32322;DHT22;61553;48.994;8.940;2023-09-19T07:06:16;18.30;99.90
32322;DHT22;61553;48.994;8.940;2023-09-19T07:08:43;18.40;99.90
32322;DHT22;61553;48.994;8.940;2023-09-19T07:11:08;18.40;99.90
32322;DHT22;61553;48.994;8.940;2023-09-19T07:13:34;18.50;99.90
32322;DHT22;61553;48.994;8.940;2023-09-19T07:16:00;18.70;99.90
32322;DHT22;61553;48.994;8.940;2023-09-19T07:18:26;19.10;99.90
32322;DHT22;61553;48.994;8.940;2023-09-19T07:20:57;19.60;99.90
32322;DHT22;61553;48.994;8.940;2023-09-19T07:23:26;20.20;99.90
32322;DHT22;61553;48.994;8.940;2023-09-19T07:25:56;20.50;99.90
32322;DHT22;61553;48.994;8.940;2023-09-19T07:28:21;20.60;99.90
32322;DHT22;61553;48.994;8.940;2023-09-19T07:30:48;21.00;99.90
32322;DHT22;61553;48.994;8.940;2023-09-19T07:33:13;21.10;99.90
32322;DHT22;61553;48.994;8.940;2023-09-19T07:35:40;21.00;99.90
32322;DHT22;61553;48.994;8.940;2023-09-19T07:38:06;21.20;99.90
32322;DHT22;61553;48.994;8.940;2023-09-19T07:40:32;21.60;99.90
32322;DHT22;61553;48.994;8.940;2023-09-19T07:42:58;22.00;99.90
32322;DHT22;61553;48.994;8.940;2023-09-19T07:45:28;22.10;99.90
32322;DHT22;61553;48.994;8.940;2023-09-19T07:47:55;22.20;99.90
32322;DHT22;61553;48.994;8.940;2023-09-19T07:50:20;22.20;99.90
32322;DHT22;61553;48.994;8.940;2023-09-19T07:52:48;22.90;99.90
32322;DHT22;61553;48.994;8.940;2023-09-19T07:55:16;23.30;99.90
32322;DHT22;61553;48.994;8.940;2023-09-19T07:57:43;23.90;99.50
32322;DHT22;61553;48.994;8.940;2023-09-19T08:00:09;24.40;97.60
32322;DHT22;61553;48.994;8.940;2023-09-19T08:02:42;25.60;95.50
32322;DHT22;61553;48.994;8.940;2023-09-19T08:05:08;25.80;93.40
32322;DHT22;61553;48.994;8.940;2023-09-19T08:07:41;26.10;91.90
32322;DHT22;61553;48.994;8.940;2023-09-19T08:10:08;26.60;90.40
32322;DHT22;61553;48.994;8.940;2023-09-19T08:12:39;27.00;87.50
32322;DHT22;61553;48.994;8.940;2023-09-19T08:15:21;27.10;86.30
32322;DHT22;61553;48.994;8.940;2023-09-19T08:17:48;28.10;80.40
32322;DHT22;61553;48.994;8.940;2023-09-19T08:20:14;28.20;77.00
32322;DHT22;61553;48.994;8.940;2023-09-19T08:22:53;28.10;75.70
32322;DHT22;61553;48.994;8.940;2023-09-19T08:25:22;28.50;75.40
32322;DHT22;61553;48.994;8.940;2023-09-19T08:27:49;28.10;73.60
32322;DHT22;61553;48.994;8.940;2023-09-19T08:30:16;27.60;74.20
32322;DHT22;61553;48.994;8.940;2023-09-19T08:32:42;28.10;73.10
32322;DHT22;61553;48.994;8.940;2023-09-19T08:35:11;28.40;71.20
32322;DHT22;61553;48.994;8.940;2023-09-19T08:37:37;28.50;69.90
32322;DHT22;61553;48.994;8.940;2023-09-19T08:40:03;28.40;70.80
32322;DHT22;61553;48.994;8.940;2023-09-19T08:42:29;27.90;72.40
32322;DHT22;61553;48.994;8.940;2023-09-19T08:44:55;26.30;74.20
32322;DHT22;61553;48.994;8.940;2023-09-19T08:47:34;25.70;75.60
32322;DHT22;61553;48.994;8.940;2023-09-19T08:50:14;24.50;78.20
32322;DHT22;61553;48.994;8.940;2023-09-19T08:52:43;24.30;79.80
32322;DHT22;61553;48.994;8.940;2023-09-19T08:55:13;24.20;81.20
32322;DHT22;61553;48.994;8.940;2023-09-19T08:57:46;23.70;80.40
32322;DHT22;61553;48.994;8.940;2023-09-19T09:00:15;23.30;83.30
32322;DHT22;61553;48.994;8.940;2023-09-19T09:02:44;22.90;84.10
32322;DHT22;61553;48.994;8.940;2023-09-19T09:05:10;23.20;83.60
32322;DHT22;61553;48.994;8.940;2023-09-19T09:07:37;23.30;84.00
32322;DHT22;61553;48.994;8.940;2023-09-19T09:10:04;22.90;85.40
32322;DHT22;61553;48.994;8.940;2023-09-19T09:12:30;23.30;84.90
32322;DHT22;61553;48.994;8.940;2023-09-19T09:14:56;23.70;83.20
32322;DHT22;61553;48.994;8.940;2023-09-19T09:17:23;23.80;81.90
32322;DHT22;61553;48.994;8.940;2023-09-19T09:19:52;23.40;83.50
32322;DHT22;61553;48.994;8.940;2023-09-19T09:22:18;22.90;85.10
32322;DHT22;61553;48.994;8.940;2023-09-19T09:24:56;22.80;85.50
32322;DHT22;61553;48.994;8.940;2023-09-19T09:27:27;22.70;86.90
32322;DHT22;61553;48.994;8.940;2023-09-19T09:29:53;22.90;87.10
32322;DHT22;61553;48.994;8.940;2023-09-19T09:32:26;23.10;85.00
32322;DHT22;61553;48.994;8.940;2023-09-19T09:34:58;23.40;83.00
32322;DHT22;61553;48.994;8.940;2023-09-19T09:37:25;23.70;81.50
32322;DHT22;61553;48.994;8.940;2023-09-19T09:39:56;24.10;80.30
32322;DHT22;61553;48.994;8.940;2023-09-19T09:45:25;24.90;77.70
32322;DHT22;61553;48.994;8.940;2023-09-19T09:48:03;25.40;76.90
32322;DHT22;61553;48.994;8.940;2023-09-19T09:50:33;26.60;72.80
32322;DHT22;61553;48.994;8.940;2023-09-19T09:53:28;26.80;73.60
32322;DHT22;61553;48.994;8.940;2023-09-19T09:56:07;28.20;70.80
32322;DHT22;61553;48.994;8.940;2023-09-19T09:58:36;27.80;69.20
32322;DHT22;61553;48.994;8.940;2023-09-19T10:01:03;28.00;69.30
32322;DHT22;61553;48.994;8.940;2023-09-19T10:03:35;28.30;67.60
32322;DHT22;61553;48.994;8.940;2023-09-19T10:06:11;28.00;70.00
32322;DHT22;61553;48.994;8.940;2023-09-19T10:11:46;26.10;71.80
32322;DHT22;61553;48.994;8.940;2023-09-19T10:14:15;25.30;74.40
32322;DHT22;61553;48.994;8.940;2023-09-19T10:16:52;23.90;77.10
32322;DHT22;61553;48.994;8.940;2023-09-19T10:19:33;22.80;79.90
32322;DHT22;61553;48.994;8.940;2023-09-19T10:22:02;22.60;82.20
32322;DHT22;61553;48.994;8.940;2023-09-19T10:24:30;22.20;82.40
32322;DHT22;61553;48.994;8.940;2023-09-19T10:26:57;22.20;81.90
32322;DHT22;61553;48.994;8.940;2023-09-19T10:29:24;23.40;80.30
32322;DHT22;61553;48.994;8.940;2023-09-19T10:31:54;25.40;74.60
32322;DHT22;61553;48.994;8.940;2023-09-19T10:34:22;27.00;71.10
32322;DHT22;61553;48.994;8.940;2023-09-19T10:36:51;27.70;69.50
32322;DHT22;61553;48.994;8.940;2023-09-19T10:39:16;27.20;69.30
32322;DHT22;61553;48.994;8.940;2023-09-19T10:41:53;26.80;68.30
32322;DHT22;61553;48.994;8.940;2023-09-19T10:44:23;25.90;68.80
32322;DHT22;61553;48.994;8.940;2023-09-19T10:46:53;24.90;71.40
32322;DHT22;61553;48.994;8.940;2023-09-19T10:49:22;24.10;73.20
32322;DHT22;61553;48.994;8.940;2023-09-19T10:51:50;23.40;75.10
32322;DHT22;61553;48.994;8.940;2023-09-19T10:54:20;23.20;77.40
32322;DHT22;61553;48.994;8.940;2023-09-19T10:56:52;24.70;75.10
32322;DHT22;61553;48.994;8.940;2023-09-19T10:59:20;24.90;72.50
32322;DHT22;61553;48.994;8.940;2023-09-19T11:01:56;24.60;73.50
32322;DHT22;61553;48.994;8.940;2023-09-19T11:04:32;25.00;73.60
32322;DHT22;61553;48.994;8.940;2023-09-19T11:09:56;25.80;71.20
32322;DHT22;61553;48.994;8.940;2023-09-19T11:26:50;24.00;73.50
32322;DHT22;61553;48.994;8.940;2023-09-19T11:29:27;24.10;74.60
32322;DHT22;61553;48.994;8.940;2023-09-19T11:31:54;24.40;74.60
32322;DHT22;61553;48.994;8.940;2023-09-19T11:39:39;23.90;73.10
32322;DHT22;61553;48.994;8.940;2023-09-19T11:48:16;23.90;73.70
32322;DHT22;61553;48.994;8.940;2023-09-19T11:50:44;23.90;74.60
32322;DHT22;61553;48.994;8.940;2023-09-19T11:53:11;23.90;73.70
32322;DHT22;61553;48.994;8.940;2023-09-19T11:55:38;23.80;73.80
32322;DHT22;61553;48.994;8.940;2023-09-19T11:58:07;23.60;73.50
32322;DHT22;61553;48.994;8.940;2023-09-19T12:00:34;23.60;74.80
32322;DHT22;61553;48.994;8.940;2023-09-19T12:03:11;23.60;74.30
32322;DHT22;61553;48.994;8.940;2023-09-19T12:05:37;23.60;75.00
32322;DHT22;61553;48.994;8.940;2023-09-19T12:08:07;23.80;75.40
32322;DHT22;61553;48.994;8.940;2023-09-19T12:10:47;23.80;75.20
32322;DHT22;61553;48.994;8.940;2023-09-19T12:13:18;23.70;75.20
32322;DHT22;61553;48.994;8.940;2023-09-19T12:15:45;23.50;75.20
32322;DHT22;61553;48.994;8.940;2023-09-19T12:18:31;23.50;75.60
32322;DHT22;61553;48.994;8.940;2023-09-19T12:20:56;23.50;75.20
32322;DHT22;61553;48.994;8.940;2023-09-19T12:23:23;23.40;73.20
32322;DHT22;61553;48.994;8.940;2023-09-19T12:25:51;23.50;72.40
32322;DHT22;61553;48.994;8.940;2023-09-19T12:28:19;23.10;72.60
32322;DHT22;61553;48.994;8.940;2023-09-19T12:30:48;23.10;74.10
32322;DHT22;61553;48.994;8.940;2023-09-19T12:33:18;23.10;74.70
32322;DHT22;61553;48.994;8.940;2023-09-19T12:35:45;23.20;73.20
32322;DHT22;61553;48.994;8.940;2023-09-19T12:38:23;23.20;73.70
32322;DHT22;61553;48.994;8.940;2023-09-19T12:40:50;23.20;73.70
32322;DHT22;61553;48.994;8.940;2023-09-19T12:43:18;23.20;74.20
32322;DHT22;61553;48.994;8.940;2023-09-19T12:45:43;23.20;74.20
32322;DHT22;61553;48.994;8.940;2023-09-19T12:48:25;23.10;74.30
32322;DHT22;61553;48.994;8.940;2023-09-19T12:51:08;23.20;73.30
32322;DHT22;61553;48.994;8.940;2023-09-19T12:53:43;23.20;73.00
32322;DHT22;61553;48.994;8.940;2023-09-19T12:56:12;23.20;74.00
32322;DHT22;61553;48.994;8.940;2023-09-19T12:58:56;23.00;72.40
32322;DHT22;61553;48.994;8.940;2023-09-19T13:01:26;22.90;74.00
32322;DHT22;61553;48.994;8.940;2023-09-19T13:06:40;22.90;74.30
32322;DHT22;61553;48.994;8.940;2023-09-19T13:09:10;22.90;74.90
32322;DHT22;61553;48.994;8.940;2023-09-19T13:11:37;22.80;74.70
32322;DHT22;61553;48.994;8.940;2023-09-19T13:14:28;22.80;73.20
32322;DHT22;61553;48.994;8.940;2023-09-19T13:17:04;22.70;73.90
32322;DHT22;61553;48.994;8.940;2023-09-19T13:24:50;22.80;75.00
32322;DHT22;61553;48.994;8.940;2023-09-19T13:27:17;23.00;75.50
32322;DHT22;61553;48.994;8.940;2023-09-19T13:29:42;23.10;74.50
32322;DHT22;61553;48.994;8.940;2023-09-19T13:32:08;22.80;74.60
32322;DHT22;61553;48.994;8.940;2023-09-19T13:34:36;22.80;72.90
32322;DHT22;61553;48.994;8.940;2023-09-19T13:37:04;22.80;73.90
32322;DHT22;61553;48.994;8.940;2023-09-19T13:39:30;22.90;75.30
32322;DHT22;61553;48.994;8.940;2023-09-19T13:41:55;23.10;74.60
32322;DHT22;61553;48.994;8.940;2023-09-19T13:44:21;23.10;73.60
32322;DHT22;61553;48.994;8.940;2023-09-19T13:46:47;23.20;73.70
32322;DHT22;61553;48.994;8.940;2023-09-19T13:49:12;23.40;73.30
32322;DHT22;61553;48.994;8.940;2023-09-19T13:51:38;23.30;73.60
32322;DHT22;61553;48.994;8.940;2023-09-19T13:54:04;23.30;72.70
32322;DHT22;61553;48.994;8.940;2023-09-19T13:56:30;23.30;73.20
32322;DHT22;61553;48.994;8.940;2023-09-19T13:58:57;23.10;74.80
32322;DHT22;61553;48.994;8.940;2023-09-19T14:01:23;23.20;73.70
32322;DHT22;61553;48.994;8.940;2023-09-19T14:03:49;22.90;73.90
32322;DHT22;61553;48.994;8.940;2023-09-19T14:06:17;22.90;74.40
32322;DHT22;61553;48.994;8.940;2023-09-19T14:08:43;23.10;75.00
32322;DHT22;61553;48.994;8.940;2023-09-19T14:11:12;23.10;75.30
32322;DHT22;61553;48.994;8.940;2023-09-19T14:13:39;23.20;74.30
32322;DHT22;61553;48.994;8.940;2023-09-19T14:16:06;23.30;74.60
32322;DHT22;61553;48.994;8.940;2023-09-19T14:18:34;23.30;72.80
32322;DHT22;61553;48.994;8.940;2023-09-19T14:21:04;23.30;73.30
32322;DHT22;61553;48.994;8.940;2023-09-19T14:23:37;23.10;73.30
32322;DHT22;61553;48.994;8.940;2023-09-19T14:26:04;23.00;73.40
32322;DHT22;61553;48.994;8.940;2023-09-19T14:28:33;22.90;72.90
32322;DHT22;61553;48.994;8.940;2023-09-19T14:31:07;22.90;74.00
32322;DHT22;61553;48.994;8.940;2023-09-19T14:33:33;23.00;72.50
32322;DHT22;61553;48.994;8.940;2023-09-19T14:36:02;23.20;73.00
32322;DHT22;61553;48.994;8.940;2023-09-19T14:38:28;23.40;71.00
32322;DHT22;61553;48.994;8.940;2023-09-19T14:41:04;23.60;71.70
32322;DHT22;61553;48.994;8.940;2023-09-19T14:43:30;23.40;72.40
32322;DHT22;61553;48.994;8.940;2023-09-19T14:46:05;23.50;72.80
32322;DHT22;61553;48.994;8.940;2023-09-19T14:48:35;23.50;71.90
32322;DHT22;61553;48.994;8.940;2023-09-19T14:51:04;23.60;72.30
32322;DHT22;61553;48.994;8.940;2023-09-19T14:53:33;23.60;73.10
32322;DHT22;61553;48.994;8.940;2023-09-19T14:56:02;23.70;71.80
32322;DHT22;61553;48.994;8.940;2023-09-19T14:58:29;23.80;72.00
32322;DHT22;61553;48.994;8.940;2023-09-19T15:01:05;23.80;70.80
32322;DHT22;61553;48.994;8.940;2023-09-19T15:03:32;23.90;70.60
32322;DHT22;61553;48.994;8.940;2023-09-19T15:06:03;23.90;68.90
32322;DHT22;61553;48.994;8.940;2023-09-19T15:08:30;23.90;68.50
32322;DHT22;61553;48.994;8.940;2023-09-19T15:10:56;23.80;68.80
32322;DHT22;61553;48.994;8.940;2023-09-19T15:13:24;23.80;69.00
32322;DHT22;61553;48.994;8.940;2023-09-19T15:16:00;23.70;69.00
32322;DHT22;61553;48.994;8.940;2023-09-19T15:18:27;23.70;69.00
32322;DHT22;61553;48.994;8.940;2023-09-19T15:20:52;23.50;69.40
32322;DHT22;61553;48.994;8.940;2023-09-19T15:23:20;23.30;69.90
32322;DHT22;61553;48.994;8.940;2023-09-19T15:25:49;23.20;70.70
32322;DHT22;61553;48.994;8.940;2023-09-19T15:28:15;22.90;71.00
32322;DHT22;61553;48.994;8.940;2023-09-19T15:30:41;22.70;71.30
32322;DHT22;61553;48.994;8.940;2023-09-19T15:33:06;22.60;72.40
32322;DHT22;61553;48.994;8.940;2023-09-19T15:35:32;22.50;72.20
32322;DHT22;61553;48.994;8.940;2023-09-19T15:37:58;22.40;72.40
32322;DHT22;61553;48.994;8.940;2023-09-19T15:40:26;22.30;72.80
32322;DHT22;61553;48.994;8.940;2023-09-19T15:42:51;22.20;74.00
32322;DHT22;61553;48.994;8.940;2023-09-19T15:45:17;22.20;74.50
32322;DHT22;61553;48.994;8.940;2023-09-19T15:47:44;22.20;75.20
32322;DHT22;61553;48.994;8.940;2023-09-19T15:50:10;22.10;75.00
32322;DHT22;61553;48.994;8.940;2023-09-19T15:52:41;22.10;74.60
32322;DHT22;61553;48.994;8.940;2023-09-19T15:55:08;22.10;75.30
32322;DHT22;61553;48.994;8.940;2023-09-19T15:57:37;22.00;76.10
32322;DHT22;61553;48.994;8.940;2023-09-19T16:00:04;22.00;74.90
32322;DHT22;61553;48.994;8.940;2023-09-19T16:02:36;22.00;74.50
32322;DHT22;61553;48.994;8.940;2023-09-19T16:05:01;22.00;75.50
32322;DHT22;61553;48.994;8.940;2023-09-19T16:07:32;21.90;76.10
32322;DHT22;61553;48.994;8.940;2023-09-19T16:09:59;21.90;76.60
32322;DHT22;61553;48.994;8.940;2023-09-19T16:12:25;21.80;75.90
32322;DHT22;61553;48.994;8.940;2023-09-19T16:14:55;21.80;76.70
32322;DHT22;61553;48.994;8.940;2023-09-19T16:17:20;21.70;76.90
32322;DHT22;61553;48.994;8.940;2023-09-19T16:19:46;21.70;77.80
32322;DHT22;61553;48.994;8.940;2023-09-19T16:22:12;21.60;78.10
32322;DHT22;61553;48.994;8.940;2023-09-19T16:24:39;21.60;77.90
32322;DHT22;61553;48.994;8.940;2023-09-19T16:27:04;21.60;78.50
32322;DHT22;61553;48.994;8.940;2023-09-19T16:29:31;21.50;78.50
32322;DHT22;61553;48.994;8.940;2023-09-19T16:31:57;21.50;78.30
32322;DHT22;61553;48.994;8.940;2023-09-19T16:34:22;21.40;79.70
32322;DHT22;61553;48.994;8.940;2023-09-19T16:36:48;21.30;79.50